Date,TemperatureHighF,TemperatureAvgF,TemperatureLowF,DewpointHighF,DewpointAvgF,DewpointLowF,HumidityHigh,HumidityAvg,HumidityLow,PressureMaxIn,PressureMinIn,WindSpeedMaxMPH,WindSpeedAvgMPH,GustSpeedMaxMPH,PrecipitationSumIn
2013-1-3,29.0,28.0,25.0,26.0,23.0,16.0,86,80,68,0.00,40.00,11,7,20,0.00
2013-1-4,29.0,28.6,28.0,23.0,22.1,22.0,76,75,74,0.00,40.00,9,7,16,0.00
2013-1-9,47.0,42.0,33.0,35.0,29.6,23.0,72,61,50,0.00,40.00,15,8,25,0.00
2013-1-10,42.0,38.7,37.0,35.0,31.5,28.0,93,75,58,0.00,40.00,11,6,15,0.00
2013-1-11,59.0,49.8,36.0,54.0,45.7,34.0,98,86,72,0.00,40.00,12,5,21,0.00
2013-1-12,50.0,49.3,49.0,48.0,47.3,47.0,93,93,93,0.00,40.00,6,3,12,0.00
2013-1-14,28.0,25.2,21.0,18.0,17.0,16.0,86,70,62,0.00,40.00,6,2,9,0.00
2013-1-15,20.0,18.4,17.0,18.0,16.7,16.0,94,92,87,0.00,40.00,1,0,3,0.00
2013-2-21,27.0,23.1,21.0,18.0,16.2,14.0,79,74,65,0.00,40.00,13,-9,21,0.00
2013-2-22,25.0,23.3,23.0,25.0,20.5,18.0,97,88,80,0.00,40.00,14,10,25,5.07
2013-2-26,33.0,32.6,32.0,33.0,31.9,29.0,99,97,86,0.00,40.00,15,9,27,11.81
2013-3-1,29.0,27.7,26.0,21.0,20.3,19.0,76,73,72,0.00,40.00,7,4,16,0.00
2013-3-2,27.0,26.1,26.0,20.0,19.9,19.0,77,76,76,0.00,40.00,7,3,11,0.00
2013-3-29,55.0,47.8,36.0,25.0,22.3,18.0,58,36,28,0.00,40.00,9,-26,14,0.00
2013-3-30,35.0,35.0,35.0,24.0,23.8,23.0,63,62,60,0.00,40.00,1,0,6,0.00
2013-4-3,47.0,40.4,33.0,19.0,15.3,14.0,50,36,28,0.00,40.00,10,5,20,0.00
2013-4-8,72.0,64.5,54.0,59.0,52.4,45.0,92,65,51,0.00,40.00,16,8,29,4.53
2013-4-9,58.0,51.9,49.0,46.0,44.4,42.0,89,76,62,0.00,40.00,9,-6,17,0.00
2013-4-15,70.0,66.9,62.0,52.0,50.0,48.0,63,54,47,0.00,40.00,13,8,24,0.00
2013-4-18,80.0,63.2,59.0,62.0,60.3,59.0,98,91,52,0.00,40.00,16,6,31,1.65
2013-4-19,59.0,59.0,59.0,59.0,58.4,58.0,98,98,98,0.00,40.00,5,2,10,0.00
2013-6-27,71.0,69.3,68.0,70.0,67.8,67.0,96,95,94,0.00,40.00,6,2,12,0.00
2013-6-28,69.0,67.2,65.0,68.0,66.5,65.0,97,97,96,0.00,40.00,4,1,7,0.00
2013-11-27,29.0,25.7,20.0,15.0,11.9,10.0,65,55,47,0.00,40.00,15,8,24,0.00
2013-11-28,29.0,25.4,20.0,21.0,15.0,11.0,81,64,55,0.00,40.00,8,3,13,0.00
2013-11-29,38.0,30.0,24.0,22.0,19.2,16.0,79,64,41,0.00,40.00,5,2,10,0.00
2013-11-30,39.0,30.5,28.0,26.0,22.1,20.0,77,70,58,0.00,40.00,7,4,13,0.00
2013-12-5,62.0,44.3,32.0,57.0,37.3,23.0,89,76,66,0.00,40.00,14,8,24,0.00
2013-12-6,32.0,29.0,24.0,23.0,19.9,15.0,72,68,63,0.00,40.00,7,4,13,0.00
2013-12-7,28.0,22.2,17.0,16.0,10.1,-99.9,73,62,50,0.00,40.00,9,4,15,0.00
2013-12-8,30.0,22.3,15.0,28.0,17.8,9.0,98,82,71,0.00,40.00,11,5,19,0.00
2013-12-9,30.0,26.7,20.0,30.0,22.4,12.0,99,83,69,0.00,40.00,17,8,29,1.10
2013-12-10,25.0,19.4,12.0,12.0,8.4,2.0,77,62,42,0.00,40.00,15,8,31,0.00
2013-12-11,26.0,18.6,12.0,20.0,12.3,7.0,89,76,65,0.00,40.00,9,5,17,1.65
2013-12-12,18.0,13.5,6.0,9.0,4.5,-4.0,89,68,44,0.00,40.00,10,5,21,0.00
2013-12-13,35.0,24.1,17.0,24.0,14.9,8.0,85,68,57,0.00,40.00,9,4,15,0.00
2013-12-14,27.0,23.1,21.0,25.0,20.8,-99.9,98,95,88,0.00,40.00,9,5,16,18.94
2013-12-21,56.0,40.0,34.0,56.0,37.9,-99.9,99,96,93,0.00,40.00,10,5,17,40.46
2013-12-22,42.0,36.9,34.0,40.0,35.6,33.0,99,95,85,0.00,40.00,16,6,25,2.75
2013-12-23,35.0,30.7,22.0,33.0,24.6,12.0,91,78,64,0.00,40.00,12,7,20,0.00
2013-12-24,24.0,16.5,11.0,12.0,8.6,5.0,85,70,51,0.00,40.00,12,6,19,0.00
2013-12-25,26.0,20.8,13.0,24.0,16.3,11.0,91,82,66,0.00,40.00,10,5,20,0.55
2013-12-26,29.0,27.3,26.0,28.0,21.1,16.0,94,77,63,0.00,40.00,11,6,19,0.55
2013-12-27,40.0,33.8,29.0,29.0,25.8,22.0,77,72,65,0.00,40.00,7,4,13,0.00